sensor_id;sensor_type;location;lat;lon;timestamp;pressure;altitude;pressure_sealevel;temperature;humidity
19600;BME280;9947;57.722;12.012;2023-06-26T00:01:14;101095.13;;;14.81;100.00
19600;BME280;9947;57.722;12.012;2023-06-26T00:03:41;101095.75;;;14.85;100.00
19600;BME280;9947;57.722;12.012;2023-06-26T00:06:10;101095.13;;;14.81;100.00
19600;BME280;9947;57.722;12.012;2023-06-26T00:08:38;101093.25;;;14.72;100.00
19600;BME280;9947;57.722;12.012;2023-06-26T00:11:06;101092.66;;;14.68;100.00
19600;BME280;9947;57.722;12.012;2023-06-26T00:13:33;101095.38;;;14.68;100.00
19600;BME280;9947;57.722;12.012;2023-06-26T00:16:01;101097.66;;;14.63;100.00
19600;BME280;9947;57.722;12.012;2023-06-26T00:18:29;101087.19;;;14.59;100.00
19600;BME280;9947;57.722;12.012;2023-06-26T00:20:58;101082.53;;;14.49;100.00
19600;BME280;9947;57.722;12.012;2023-06-26T00:23:26;101081.22;;;14.44;100.00
19600;BME280;9947;57.722;12.012;2023-06-26T00:25:59;101080.44;;;14.42;100.00
19600;BME280;9947;57.722;12.012;2023-06-26T00:28:27;101077.88;;;14.40;100.00
19600;BME280;9947;57.722;12.012;2023-06-26T00:33:29;101082.38;;;14.30;100.00
19600;BME280;9947;57.722;12.012;2023-06-26T00:36:01;101071.88;;;14.26;100.00
19600;BME280;9947;57.722;12.012;2023-06-26T00:38:31;101078.31;;;14.25;100.00
19600;BME280;9947;57.722;12.012;2023-06-26T00:40:58;101066.59;;;14.24;100.00
19600;BME280;9947;57.722;12.012;2023-06-26T00:43:25;101065.31;;;14.28;100.00
19600;BME280;9947;57.722;12.012;2023-06-26T00:48:29;101066.41;;;14.16;100.00
19600;BME280;9947;57.722;12.012;2023-06-26T00:51:00;101069.38;;;14.13;100.00
19600;BME280;9947;57.722;12.012;2023-06-26T00:53:28;101064.72;;;14.04;100.00
19600;BME280;9947;57.722;12.012;2023-06-26T00:58:25;101060.81;;;13.97;100.00
19600;BME280;9947;57.722;12.012;2023-06-26T01:03:18;101061.22;;;13.92;100.00
19600;BME280;9947;57.722;12.012;2023-06-26T01:05:46;101053.47;;;13.87;100.00
19600;BME280;9947;57.722;12.012;2023-06-26T01:08:16;101062.34;;;13.89;100.00
19600;BME280;9947;57.722;12.012;2023-06-26T01:10:44;101056.91;;;13.89;100.00
19600;BME280;9947;57.722;12.012;2023-06-26T01:13:13;101058.50;;;13.92;100.00
19600;BME280;9947;57.722;12.012;2023-06-26T01:15:43;101056.50;;;13.94;100.00
19600;BME280;9947;57.722;12.012;2023-06-26T01:18:12;101053.53;;;13.97;100.00
19600;BME280;9947;57.722;12.012;2023-06-26T01:20:43;101050.75;;;13.87;100.00
19600;BME280;9947;57.722;12.012;2023-06-26T01:23:15;101040.78;;;13.77;100.00
19600;BME280;9947;57.722;12.012;2023-06-26T01:25:56;101042.41;;;13.79;100.00
19600;BME280;9947;57.722;12.012;2023-06-26T01:28:29;101037.47;;;13.73;100.00
19600;BME280;9947;57.722;12.012;2023-06-26T01:30:59;101043.88;;;13.72;100.00
19600;BME280;9947;57.722;12.012;2023-06-26T01:33:29;101039.16;;;13.85;100.00
19600;BME280;9947;57.722;12.012;2023-06-26T01:35:56;101033.72;;;13.85;100.00
19600;BME280;9947;57.722;12.012;2023-06-26T01:38:24;101038.06;;;13.77;100.00
19600;BME280;9947;57.722;12.012;2023-06-26T01:43:24;101034.31;;;13.89;100.00
19600;BME280;9947;57.722;12.012;2023-06-26T01:45:59;101021.19;;;13.94;100.00
19600;BME280;9947;57.722;12.012;2023-06-26T01:48:32;101019.44;;;13.93;100.00
19600;BME280;9947;57.722;12.012;2023-06-26T01:51:01;101026.41;;;13.86;100.00
19600;BME280;9947;57.722;12.012;2023-06-26T01:53:34;101023.97;;;13.83;100.00
19600;BME280;9947;57.722;12.012;2023-06-26T01:56:07;101027.19;;;13.77;100.00
19600;BME280;9947;57.722;12.012;2023-06-26T01:58:37;101022.69;;;13.66;100.00
19600;BME280;9947;57.722;12.012;2023-06-26T02:01:09;101020.09;;;13.65;100.00
19600;BME280;9947;57.722;12.012;2023-06-26T02:03:37;101023.69;;;13.65;100.00
19600;BME280;9947;57.722;12.012;2023-06-26T02:06:05;101018.56;;;13.72;100.00
19600;BME280;9947;57.722;12.012;2023-06-26T02:08:31;101014.13;;;13.71;100.00
19600;BME280;9947;57.722;12.012;2023-06-26T02:13:26;101017.97;;;13.68;100.00
19600;BME280;9947;57.722;12.012;2023-06-26T02:18:20;101010.34;;;13.62;100.00
19600;BME280;9947;57.722;12.012;2023-06-26T02:20:51;101010.50;;;13.61;100.00
19600;BME280;9947;57.722;12.012;2023-06-26T02:23:18;101004.06;;;13.62;100.00
19600;BME280;9947;57.722;12.012;2023-06-26T02:25:46;101002.97;;;13.53;100.00
19600;BME280;9947;57.722;12.012;2023-06-26T02:28:15;100997.44;;;13.54;100.00
19600;BME280;9947;57.722;12.012;2023-06-26T02:30:43;101002.22;;;13.62;100.00
19600;BME280;9947;57.722;12.012;2023-06-26T02:33:12;100997.16;;;13.57;100.00
19600;BME280;9947;57.722;12.012;2023-06-26T02:35:44;100998.44;;;13.53;100.00
19600;BME280;9947;57.722;12.012;2023-06-26T02:38:12;100986.19;;;13.59;100.00
19600;BME280;9947;57.722;12.012;2023-06-26T02:40:42;100987.22;;;13.68;100.00
19600;BME280;9947;57.722;12.012;2023-06-26T02:43:09;100989.22;;;13.66;100.00
19600;BME280;9947;57.722;12.012;2023-06-26T02:45:37;100983.53;;;13.69;100.00
19600;BME280;9947;57.722;12.012;2023-06-26T02:48:05;100975.81;;;13.74;100.00
19600;BME280;9947;57.722;12.012;2023-06-26T02:50:32;100972.47;;;13.81;100.00
19600;BME280;9947;57.722;12.012;2023-06-26T02:53:00;100969.88;;;13.80;100.00
19600;BME280;9947;57.722;12.012;2023-06-26T02:55:27;100975.81;;;13.74;100.00
19600;BME280;9947;57.722;12.012;2023-06-26T03:03:20;100969.22;;;13.67;100.00
19600;BME280;9947;57.722;12.012;2023-06-26T03:05:48;100971.78;;;13.68;100.00
19600;BME280;9947;57.722;12.012;2023-06-26T03:08:17;100968.53;;;13.74;100.00
19600;BME280;9947;57.722;12.012;2023-06-26T03:10:45;100962.59;;;13.80;100.00
19600;BME280;9947;57.722;12.012;2023-06-26T03:13:12;100959.34;;;13.86;100.00
19600;BME280;9947;57.722;12.012;2023-06-26T03:15:40;100963.69;;;13.99;100.00
19600;BME280;9947;57.722;12.012;2023-06-26T03:18:08;100973.38;;;14.12;100.00
19600;BME280;9947;57.722;12.012;2023-06-26T03:20:36;100966.22;;;14.11;100.00
19600;BME280;9947;57.722;12.012;2023-06-26T03:23:05;100958.72;;;14.04;100.00
19600;BME280;9947;57.722;12.012;2023-06-26T03:25:34;100952.97;;;13.97;100.00
19600;BME280;9947;57.722;12.012;2023-06-26T03:28:02;100953.03;;;14.07;100.00
19600;BME280;9947;57.722;12.012;2023-06-26T03:30:29;100948.63;;;14.15;100.00
19600;BME280;9947;57.722;12.012;2023-06-26T03:35:22;100955.09;;;14.24;100.00
19600;BME280;9947;57.722;12.012;2023-06-26T03:37:51;100949.78;;;14.43;100.00
19600;BME280;9947;57.722;12.012;2023-06-26T03:40:18;100947.16;;;14.72;100.00
19600;BME280;9947;57.722;12.012;2023-06-26T03:42:49;100936.38;;;15.69;100.00
19600;BME280;9947;57.722;12.012;2023-06-26T03:45:16;100942.38;;;17.82;100.00
19600;BME280;9947;57.722;12.012;2023-06-26T03:47:45;100938.09;;;19.32;100.00
19600;BME280;9947;57.722;12.012;2023-06-26T03:50:14;100936.34;;;19.07;100.00
19600;BME280;9947;57.722;12.012;2023-06-26T03:52:40;100934.97;;;18.27;100.00
19600;BME280;9947;57.722;12.012;2023-06-26T03:55:08;100942.47;;;17.55;100.00
19600;BME280;9947;57.722;12.012;2023-06-26T03:57:35;100942.13;;;17.40;100.00
19600;BME280;9947;57.722;12.012;2023-06-26T04:00:06;100940.75;;;17.36;100.00
19600;BME280;9947;57.722;12.012;2023-06-26T04:02:34;100939.59;;;16.76;100.00
19600;BME280;9947;57.722;12.012;2023-06-26T04:10:07;100927.63;;;17.57;100.00
19600;BME280;9947;57.722;12.012;2023-06-26T04:12:34;100927.34;;;17.25;100.00
19600;BME280;9947;57.722;12.012;2023-06-26T04:15:01;100924.16;;;16.84;100.00
19600;BME280;9947;57.722;12.012;2023-06-26T04:17:30;100920.34;;;16.77;100.00
19600;BME280;9947;57.722;12.012;2023-06-26T04:19:57;100924.47;;;16.54;100.00
19600;BME280;9947;57.722;12.012;2023-06-26T04:22:25;100920.47;;;16.48;100.00
19600;BME280;9947;57.722;12.012;2023-06-26T04:27:19;100909.34;;;16.59;100.00
19600;BME280;9947;57.722;12.012;2023-06-26T04:29:47;100910.69;;;17.01;100.00
19600;BME280;9947;57.722;12.012;2023-06-26T04:32:14;100896.25;;;17.87;100.00
19600;BME280;9947;57.722;12.012;2023-06-26T04:34:44;100900.25;;;19.28;100.00
19600;BME280;9947;57.722;12.012;2023-06-26T04:37:13;100893.88;;;20.00;100.00
19600;BME280;9947;57.722;12.012;2023-06-26T04:39:43;100896.59;;;21.49;100.00
19600;BME280;9947;57.722;12.012;2023-06-26T04:44:40;100898.78;;;25.38;85.25
19600;BME280;9947;57.722;12.012;2023-06-26T04:47:09;100899.66;;;26.95;75.98
19600;BME280;9947;57.722;12.012;2023-06-26T04:49:36;100893.75;;;23.83;90.15
19600;BME280;9947;57.722;12.012;2023-06-26T04:52:08;100892.28;;;24.98;86.31
19600;BME280;9947;57.722;12.012;2023-06-26T04:54:37;100884.16;;;25.90;79.45
19600;BME280;9947;57.722;12.012;2023-06-26T04:57:05;100883.47;;;26.15;74.42
19600;BME280;9947;57.722;12.012;2023-06-26T04:59:35;100881.63;;;27.49;66.41
19600;BME280;9947;57.722;12.012;2023-06-26T05:02:02;100879.22;;;25.39;77.13
19600;BME280;9947;57.722;12.012;2023-06-26T05:04:30;100877.56;;;24.90;79.96
19600;BME280;9947;57.722;12.012;2023-06-26T05:09:32;100873.53;;;23.76;92.46
19600;BME280;9947;57.722;12.012;2023-06-26T05:14:32;100868.59;;;27.50;69.12
19600;BME280;9947;57.722;12.012;2023-06-26T05:17:01;100866.59;;;26.94;69.86
19600;BME280;9947;57.722;12.012;2023-06-26T05:19:28;100869.09;;;27.09;69.79
19600;BME280;9947;57.722;12.012;2023-06-26T05:24:22;100866.31;;;27.09;64.46
19600;BME280;9947;57.722;12.012;2023-06-26T05:26:52;100858.16;;;26.04;73.01
19600;BME280;9947;57.722;12.012;2023-06-26T05:29:20;100857.34;;;24.83;80.93
19600;BME280;9947;57.722;12.012;2023-06-26T05:31:51;100852.25;;;27.91;65.43
19600;BME280;9947;57.722;12.012;2023-06-26T05:34:22;100853.59;;;27.26;67.83
19600;BME280;9947;57.722;12.012;2023-06-26T05:36:51;100850.31;;;27.11;68.09
19600;BME280;9947;57.722;12.012;2023-06-26T05:44:31;100836.41;;;30.60;50.85
19600;BME280;9947;57.722;12.012;2023-06-26T05:49:23;100836.09;;;29.22;56.49
19600;BME280;9947;57.722;12.012;2023-06-26T05:51:51;100834.50;;;31.18;48.07
19600;BME280;9947;57.722;12.012;2023-06-26T05:54:19;100841.06;;;30.83;49.83
19600;BME280;9947;57.722;12.012;2023-06-26T06:04:33;100833.22;;;30.68;47.51
19600;BME280;9947;57.722;12.012;2023-06-26T06:09:26;100825.22;;;29.97;47.97
19600;BME280;9947;57.722;12.012;2023-06-26T06:11:54;100821.09;;;29.76;48.41
19600;BME280;9947;57.722;12.012;2023-06-26T06:14:20;100823.47;;;29.07;50.86
19600;BME280;9947;57.722;12.012;2023-06-26T06:16:48;100827.06;;;29.38;51.79
19600;BME280;9947;57.722;12.012;2023-06-26T06:19:16;100820.19;;;29.10;50.10
19600;BME280;9947;57.722;12.012;2023-06-26T06:21:54;100820.47;;;29.62;51.10
19600;BME280;9947;57.722;12.012;2023-06-26T06:24:22;100817.94;;;29.96;47.24
19600;BME280;9947;57.722;12.012;2023-06-26T06:26:49;100817.84;;;29.26;48.62
19600;BME280;9947;57.722;12.012;2023-06-26T06:29:17;100807.09;;;29.41;49.72
19600;BME280;9947;57.722;12.012;2023-06-26T06:31:46;100809.13;;;28.25;52.81
19600;BME280;9947;57.722;12.012;2023-06-26T06:34:13;100810.63;;;28.03;53.68
19600;BME280;9947;57.722;12.012;2023-06-26T06:36:41;100803.47;;;28.50;53.58
19600;BME280;9947;57.722;12.012;2023-06-26T06:39:11;100802.41;;;28.51;52.79
19600;BME280;9947;57.722;12.012;2023-06-26T06:41:38;100803.88;;;28.36;54.74
19600;BME280;9947;57.722;12.012;2023-06-26T06:44:05;100789.28;;;28.40;53.31
19600;BME280;9947;57.722;12.012;2023-06-26T06:46:36;100793.81;;;27.98;54.70
19600;BME280;9947;57.722;12.012;2023-06-26T06:49:08;100791.50;;;27.95;54.58
19600;BME280;9947;57.722;12.012;2023-06-26T06:51:35;100796.53;;;28.23;53.64
19600;BME280;9947;57.722;12.012;2023-06-26T06:54:05;100791.81;;;28.05;51.67
19600;BME280;9947;57.722;12.012;2023-06-26T06:56:34;100784.56;;;28.04;52.35
19600;BME280;9947;57.722;12.012;2023-06-26T07:01:28;100779.97;;;27.73;52.37
19600;BME280;9947;57.722;12.012;2023-06-26T07:11:21;100770.84;;;26.85;57.25
19600;BME280;9947;57.722;12.012;2023-06-26T07:13:55;100767.88;;;26.41;58.47
19600;BME280;9947;57.722;12.012;2023-06-26T07:16:31;100763.63;;;26.26;61.43
19600;BME280;9947;57.722;12.012;2023-06-26T07:21:27;100771.38;;;26.10;61.95
19600;BME280;9947;57.722;12.012;2023-06-26T07:23:56;100768.44;;;25.99;63.39
19600;BME280;9947;57.722;12.012;2023-06-26T07:26:23;100765.72;;;25.66;64.45
19600;BME280;9947;57.722;12.012;2023-06-26T07:28:57;100752.75;;;25.46;67.13
19600;BME280;9947;57.722;12.012;2023-06-26T07:31:28;100760.63;;;25.43;67.34
19600;BME280;9947;57.722;12.012;2023-06-26T07:36:20;100749.38;;;25.05;72.61
19600;BME280;9947;57.722;12.012;2023-06-26T07:38:48;100748.06;;;25.20;71.68
19600;BME280;9947;57.722;12.012;2023-06-26T07:41:18;100752.75;;;25.40;71.15
19600;BME280;9947;57.722;12.012;2023-06-26T07:43:51;100743.38;;;25.54;72.19
19600;BME280;9947;57.722;12.012;2023-06-26T07:46:27;100735.28;;;25.79;68.69
19600;BME280;9947;57.722;12.012;2023-06-26T07:48:54;100738.63;;;25.94;68.27
19600;BME280;9947;57.722;12.012;2023-06-26T07:51:21;100729.22;;;26.08;67.61
19600;BME280;9947;57.722;12.012;2023-06-26T07:53:50;100733.69;;;26.54;66.67
19600;BME280;9947;57.722;12.012;2023-06-26T07:58:48;100726.53;;;26.27;66.78
19600;BME280;9947;57.722;12.012;2023-06-26T08:01:15;100724.09;;;25.99;69.14
19600;BME280;9947;57.722;12.012;2023-06-26T08:03:48;100717.13;;;26.41;68.70
19600;BME280;9947;57.722;12.012;2023-06-26T08:06:16;100718.94;;;26.16;71.63
19600;BME280;9947;57.722;12.012;2023-06-26T08:08:51;100722.97;;;26.20;71.18
19600;BME280;9947;57.722;12.012;2023-06-26T08:11:18;100715.38;;;25.95;72.27
19600;BME280;9947;57.722;12.012;2023-06-26T08:13:49;100704.81;;;25.72;73.48
19600;BME280;9947;57.722;12.012;2023-06-26T08:16:21;100704.44;;;25.42;77.11
19600;BME280;9947;57.722;12.012;2023-06-26T08:18:49;100705.03;;;25.64;77.24
19600;BME280;9947;57.722;12.012;2023-06-26T08:21:17;100690.19;;;26.10;75.87
19600;BME280;9947;57.722;12.012;2023-06-26T08:23:48;100692.91;;;26.61;74.11
19600;BME280;9947;57.722;12.012;2023-06-26T08:26:16;100689.22;;;27.24;70.16
19600;BME280;9947;57.722;12.012;2023-06-26T08:28:47;100691.84;;;26.62;72.24
19600;BME280;9947;57.722;12.012;2023-06-26T08:31:16;100687.56;;;26.22;74.69
19600;BME280;9947;57.722;12.012;2023-06-26T08:36:38;100677.53;;;26.34;73.43
19600;BME280;9947;57.722;12.012;2023-06-26T08:39:07;100669.63;;;26.37;73.06
19600;BME280;9947;57.722;12.012;2023-06-26T08:41:34;100659.38;;;26.38;70.97
19600;BME280;9947;57.722;12.012;2023-06-26T08:44:01;100646.69;;;26.55;69.94
19600;BME280;9947;57.722;12.012;2023-06-26T08:46:28;100646.00;;;26.22;69.39
19600;BME280;9947;57.722;12.012;2023-06-26T08:49:02;100644.63;;;25.99;71.83
19600;BME280;9947;57.722;12.012;2023-06-26T08:51:35;100639.63;;;26.59;69.44
19600;BME280;9947;57.722;12.012;2023-06-26T08:54:09;100640.47;;;26.85;67.70
19600;BME280;9947;57.722;12.012;2023-06-26T08:56:41;100639.97;;;26.94;66.13
19600;BME280;9947;57.722;12.012;2023-06-26T08:59:09;100635.88;;;26.72;66.22
19600;BME280;9947;57.722;12.012;2023-06-26T09:01:44;100636.63;;;26.86;65.52
19600;BME280;9947;57.722;12.012;2023-06-26T09:06:55;100628.53;;;26.59;65.65
19600;BME280;9947;57.722;12.012;2023-06-26T09:09:23;100621.06;;;26.85;66.21
19600;BME280;9947;57.722;12.012;2023-06-26T09:11:50;100628.47;;;26.91;64.99
19600;BME280;9947;57.722;12.012;2023-06-26T09:14:23;100620.91;;;26.48;65.12
19600;BME280;9947;57.722;12.012;2023-06-26T09:16:49;100609.44;;;26.69;65.50
19600;BME280;9947;57.722;12.012;2023-06-26T09:19:19;100606.13;;;26.29;66.34
19600;BME280;9947;57.722;12.012;2023-06-26T09:21:55;100603.03;;;25.68;69.42
19600;BME280;9947;57.722;12.012;2023-06-26T09:24:23;100604.59;;;25.50;72.02
19600;BME280;9947;57.722;12.012;2023-06-26T09:26:54;100593.78;;;25.87;69.10
19600;BME280;9947;57.722;12.012;2023-06-26T09:29:24;100586.56;;;26.18;68.69
19600;BME280;9947;57.722;12.012;2023-06-26T09:34:32;100583.41;;;26.70;64.82
19600;BME280;9947;57.722;12.012;2023-06-26T09:37:08;100582.28;;;26.53;65.00
19600;BME280;9947;57.722;12.012;2023-06-26T09:39:44;100577.81;;;26.52;64.95
19600;BME280;9947;57.722;12.012;2023-06-26T09:42:15;100575.22;;;26.57;65.40
19600;BME280;9947;57.722;12.012;2023-06-26T09:44:44;100575.16;;;26.64;66.32
19600;BME280;9947;57.722;12.012;2023-06-26T09:47:15;100565.31;;;26.43;66.95
19600;BME280;9947;57.722;12.012;2023-06-26T09:49:48;100562.38;;;26.38;65.80
19600;BME280;9947;57.722;12.012;2023-06-26T09:52:19;100550.78;;;25.85;68.06
19600;BME280;9947;57.722;12.012;2023-06-26T09:54:49;100550.81;;;25.78;70.91
19600;BME280;9947;57.722;12.012;2023-06-26T09:57:20;100538.16;;;25.44;73.79
19600;BME280;9947;57.722;12.012;2023-06-26T09:59:51;100547.69;;;25.99;72.60
19600;BME280;9947;57.722;12.012;2023-06-26T10:02:18;100551.53;;;26.61;64.83
19600;BME280;9947;57.722;12.012;2023-06-26T10:04:50;100534.50;;;26.58;63.26
19600;BME280;9947;57.722;12.012;2023-06-26T10:09:55;100523.34;;;26.64;61.59
19600;BME280;9947;57.722;12.012;2023-06-26T10:12:28;100525.75;;;26.97;63.11
19600;BME280;9947;57.722;12.012;2023-06-26T10:14:57;100534.97;;;26.55;64.17
19600;BME280;9947;57.722;12.012;2023-06-26T10:17:32;100534.59;;;26.69;64.89
19600;BME280;9947;57.722;12.012;2023-06-26T10:22:29;100526.84;;;26.96;59.71
19600;BME280;9947;57.722;12.012;2023-06-26T10:25:01;100524.81;;;27.10;59.38
19600;BME280;9947;57.722;12.012;2023-06-26T10:27:35;100521.41;;;27.26;57.30
19600;BME280;9947;57.722;12.012;2023-06-26T10:32:31;100530.66;;;27.02;59.18
19600;BME280;9947;57.722;12.012;2023-06-26T10:37:41;100517.25;;;26.74;60.21
19600;BME280;9947;57.722;12.012;2023-06-26T10:42:39;100513.28;;;26.45;60.05
19600;BME280;9947;57.722;12.012;2023-06-26T10:45:10;100513.28;;;26.45;60.85
19600;BME280;9947;57.722;12.012;2023-06-26T10:47:41;100507.34;;;26.41;61.21
19600;BME280;9947;57.722;12.012;2023-06-26T10:50:23;100509.34;;;26.53;58.85
19600;BME280;9947;57.722;12.012;2023-06-26T10:53:11;100515.69;;;27.03;57.18
19600;BME280;9947;57.722;12.012;2023-06-26T10:55:43;100501.47;;;26.74;57.06
19600;BME280;9947;57.722;12.012;2023-06-26T10:58:33;100495.00;;;26.37;57.93
19600;BME280;9947;57.722;12.012;2023-06-26T11:03:29;100494.06;;;27.12;55.04
19600;BME280;9947;57.722;12.012;2023-06-26T11:08:49;100492.81;;;27.26;52.11
19600;BME280;9947;57.722;12.012;2023-06-26T11:11:20;100485.88;;;27.35;52.14
19600;BME280;9947;57.722;12.012;2023-06-26T11:13:49;100480.25;;;27.05;53.02
19600;BME280;9947;57.722;12.012;2023-06-26T11:16:16;100475.53;;;27.06;51.84
19600;BME280;9947;57.722;12.012;2023-06-26T11:18:45;100493.41;;;27.28;50.25
19600;BME280;9947;57.722;12.012;2023-06-26T11:21:12;100483.09;;;27.17;50.85
19600;BME280;9947;57.722;12.012;2023-06-26T11:23:40;100489.31;;;27.30;50.44
19600;BME280;9947;57.722;12.012;2023-06-26T11:26:16;100497.72;;;27.42;49.71
19600;BME280;9947;57.722;12.012;2023-06-26T11:28:53;100489.97;;;27.14;50.71
19600;BME280;9947;57.722;12.012;2023-06-26T11:31:29;100490.25;;;27.06;50.34
19600;BME280;9947;57.722;12.012;2023-06-26T11:34:01;100484.41;;;27.14;49.51
19600;BME280;9947;57.722;12.012;2023-06-26T11:36:29;100481.81;;;27.49;49.52
19600;BME280;9947;57.722;12.012;2023-06-26T11:41:23;100463.00;;;27.81;48.28
19600;BME280;9947;57.722;12.012;2023-06-26T11:43:51;100464.78;;;27.46;47.85
19600;BME280;9947;57.722;12.012;2023-06-26T11:46:19;100462.81;;;27.34;47.89
19600;BME280;9947;57.722;12.012;2023-06-26T11:48:47;100461.50;;;27.37;46.00
19600;BME280;9947;57.722;12.012;2023-06-26T11:51:14;100451.13;;;27.62;45.07
19600;BME280;9947;57.722;12.012;2023-06-26T11:53:43;100447.94;;;27.59;45.08
19600;BME280;9947;57.722;12.012;2023-06-26T11:56:12;100438.22;;;27.68;45.87
19600;BME280;9947;57.722;12.012;2023-06-26T11:58:58;100444.69;;;27.92;44.90
19600;BME280;9947;57.722;12.012;2023-06-26T12:01:27;100440.94;;;27.98;44.50
19600;BME280;9947;57.722;12.012;2023-06-26T12:03:59;100439.50;;;27.95;44.32
19600;BME280;9947;57.722;12.012;2023-06-26T12:06:27;100431.06;;;28.14;43.99
19600;BME280;9947;57.722;12.012;2023-06-26T12:08:55;100425.31;;;28.39;43.68
19600;BME280;9947;57.722;12.012;2023-06-26T12:11:24;100425.91;;;28.29;43.09
19600;BME280;9947;57.722;12.012;2023-06-26T12:13:54;100427.94;;;28.22;42.86
19600;BME280;9947;57.722;12.012;2023-06-26T12:16:23;100428.91;;;28.28;43.09
19600;BME280;9947;57.722;12.012;2023-06-26T12:18:58;100425.78;;;28.36;42.63
19600;BME280;9947;57.722;12.012;2023-06-26T12:21:43;100417.69;;;28.34;42.47
19600;BME280;9947;57.722;12.012;2023-06-26T12:24:17;100416.44;;;28.07;43.51
19600;BME280;9947;57.722;12.012;2023-06-26T12:26:49;100422.50;;;28.15;43.90
19600;BME280;9947;57.722;12.012;2023-06-26T12:29:21;100428.38;;;27.95;44.33
19600;BME280;9947;57.722;12.012;2023-06-26T12:31:57;100412.06;;;27.99;43.84
19600;BME280;9947;57.722;12.012;2023-06-26T12:34:31;100410.50;;;27.91;43.55
19600;BME280;9947;57.722;12.012;2023-06-26T12:39:26;100407.63;;;28.21;42.18
19600;BME280;9947;57.722;12.012;2023-06-26T12:42:17;100401.88;;;27.81;42.74
19600;BME280;9947;57.722;12.012;2023-06-26T12:44:48;100393.97;;;27.97;43.32
19600;BME280;9947;57.722;12.012;2023-06-26T12:47:24;100384.13;;;27.82;44.98
19600;BME280;9947;57.722;12.012;2023-06-26T12:49:55;100383.69;;;27.97;44.73
19600;BME280;9947;57.722;12.012;2023-06-26T12:52:23;100376.81;;;28.00;45.23
19600;BME280;9947;57.722;12.012;2023-06-26T12:54:52;100369.66;;;27.80;45.54
19600;BME280;9947;57.722;12.012;2023-06-26T12:57:20;100357.25;;;27.94;45.08
19600;BME280;9947;57.722;12.012;2023-06-26T12:59:49;100350.22;;;27.92;44.94
19600;BME280;9947;57.722;12.012;2023-06-26T13:02:17;100352.41;;;28.02;44.51
19600;BME280;9947;57.722;12.012;2023-06-26T13:04:45;100357.72;;;28.03;44.62
19600;BME280;9947;57.722;12.012;2023-06-26T13:07:12;100341.41;;;28.07;44.50
19600;BME280;9947;57.722;12.012;2023-06-26T13:09:39;100335.25;;;28.40;43.83
19600;BME280;9947;57.722;12.012;2023-06-26T13:12:07;100333.81;;;28.25;44.47
19600;BME280;9947;57.722;12.012;2023-06-26T13:14:34;100324.38;;;27.91;44.76
19600;BME280;9947;57.722;12.012;2023-06-26T13:17:02;100317.97;;;27.91;45.38
19600;BME280;9947;57.722;12.012;2023-06-26T13:19:31;100316.28;;;27.90;45.43
19600;BME280;9947;57.722;12.012;2023-06-26T13:22:01;100320.22;;;27.59;45.66
19600;BME280;9947;57.722;12.012;2023-06-26T13:24:29;100314.59;;;27.77;45.97
19600;BME280;9947;57.722;12.012;2023-06-26T13:26:56;100317.38;;;27.89;45.52
19600;BME280;9947;57.722;12.012;2023-06-26T13:29:23;100312.06;;;27.76;46.36
19600;BME280;9947;57.722;12.012;2023-06-26T13:34:33;100306.44;;;27.41;46.46
19600;BME280;9947;57.722;12.012;2023-06-26T13:39:27;100309.56;;;27.44;47.36
19600;BME280;9947;57.722;12.012;2023-06-26T13:41:55;100307.63;;;27.33;48.29
19600;BME280;9947;57.722;12.012;2023-06-26T13:44:22;100307.47;;;26.98;48.24
19600;BME280;9947;57.722;12.012;2023-06-26T13:46:51;100309.22;;;26.81;48.79
19600;BME280;9947;57.722;12.012;2023-06-26T13:49:19;100314.31;;;26.65;49.01
19600;BME280;9947;57.722;12.012;2023-06-26T13:51:50;100334.44;;;26.42;49.49
19600;BME280;9947;57.722;12.012;2023-06-26T13:54:21;100359.88;;;25.90;52.62
19600;BME280;9947;57.722;12.012;2023-06-26T13:56:48;100358.41;;;24.86;64.95
19600;BME280;9947;57.722;12.012;2023-06-26T13:59:23;100348.88;;;23.97;80.43
19600;BME280;9947;57.722;12.012;2023-06-26T14:01:54;100345.22;;;23.31;91.23
19600;BME280;9947;57.722;12.012;2023-06-26T14:04:27;100364.59;;;22.90;96.89
19600;BME280;9947;57.722;12.012;2023-06-26T14:06:57;100401.06;;;22.44;100.00
19600;BME280;9947;57.722;12.012;2023-06-26T14:09:25;100407.44;;;22.17;100.00
19600;BME280;9947;57.722;12.012;2023-06-26T14:11:52;100423.56;;;22.20;100.00
19600;BME280;9947;57.722;12.012;2023-06-26T14:14:20;100430.06;;;21.91;100.00
19600;BME280;9947;57.722;12.012;2023-06-26T14:16:48;100434.75;;;21.69;100.00
19600;BME280;9947;57.722;12.012;2023-06-26T14:19:18;100430.94;;;21.70;100.00
19600;BME280;9947;57.722;12.012;2023-06-26T14:21:46;100427.56;;;21.32;100.00
19600;BME280;9947;57.722;12.012;2023-06-26T14:24:14;100440.09;;;21.19;100.00
19600;BME280;9947;57.722;12.012;2023-06-26T14:26:42;100442.19;;;21.17;100.00
19600;BME280;9947;57.722;12.012;2023-06-26T14:29:08;100446.59;;;20.97;100.00
19600;BME280;9947;57.722;12.012;2023-06-26T14:31:36;100449.19;;;20.84;100.00
19600;BME280;9947;57.722;12.012;2023-06-26T14:34:07;100477.13;;;20.73;100.00
19600;BME280;9947;57.722;12.012;2023-06-26T14:36:35;100482.88;;;20.48;100.00
19600;BME280;9947;57.722;12.012;2023-06-26T14:41:41;100472.03;;;19.57;100.00
19600;BME280;9947;57.722;12.012;2023-06-26T14:44:08;100479.63;;;19.38;100.00
19600;BME280;9947;57.722;12.012;2023-06-26T14:46:36;100478.19;;;19.20;100.00
19600;BME280;9947;57.722;12.012;2023-06-26T14:49:10;100472.69;;;19.28;100.00
19600;BME280;9947;57.722;12.012;2023-06-26T14:51:37;100491.59;;;18.75;100.00
19600;BME280;9947;57.722;12.012;2023-06-26T14:54:06;100481.31;;;18.69;100.00